Time,TemperatureF,DewpointF,PressureIn,WindDirection,WindDirectionDegrees,WindSpeedMPH,WindSpeedGustMPH,Humidity,HourlyPrecipIn,Conditions,Clouds,dailyrainin,SolarRadiationWatts/m^2,SoftwareType,DateUTC
2013-03-02 00:01:00,35.0,30.0,-100.00,East,95,3.0,8.0,81,0.00,,,0.00,0.000000,,2013-03-02 07:01:00,
2013-03-02 00:11:00,35.0,30.0,-100.00,East,95,3.0,8.0,81,0.00,,,0.00,0.000000,,2013-03-02 07:11:00,
2013-03-02 00:21:00,35.0,30.0,-100.00,East,95,3.0,8.0,81,0.00,,,0.00,0.000000,,2013-03-02 07:21:00,
2013-03-02 00:32:00,35.0,30.0,-100.00,East,95,3.0,8.0,81,0.00,,,0.00,0.000000,,2013-03-02 07:32:00,
2013-03-02 00:52:00,33.0,29.0,-100.00,ESE,104,4.0,5.0,85,0.00,,,0.00,0.000000,,2013-03-02 07:52:00,
2013-03-02 01:01:00,33.0,29.0,-100.00,ESE,104,4.0,5.0,85,0.00,,,0.00,0.000000,,2013-03-02 08:01:00,
2013-03-02 01:11:00,33.0,29.0,-100.00,ESE,104,4.0,5.0,85,0.00,,,0.00,0.000000,,2013-03-02 08:11:00,
2013-03-02 01:21:00,33.0,29.0,-100.00,ESE,104,4.0,5.0,85,0.00,,,0.00,0.000000,,2013-03-02 08:21:00,
2013-03-02 01:31:00,33.0,29.0,-100.00,ESE,104,4.0,5.0,85,0.00,,,0.00,0.000000,,2013-03-02 08:31:00,
2013-03-02 01:52:00,33.0,29.0,-100.00,ESE,107,4.0,6.0,84,0.00,,,0.00,0.000000,,2013-03-02 08:52:00,
2013-03-02 02:01:00,33.0,29.0,-100.00,ESE,107,4.0,6.0,84,0.00,,,0.00,0.000000,,2013-03-02 09:01:00,
2013-03-02 02:11:00,33.0,29.0,-100.00,ESE,107,4.0,6.0,84,0.00,,,0.00,0.000000,,2013-03-02 09:11:00,
2013-03-02 02:21:00,33.0,29.0,-100.00,ESE,107,4.0,6.0,84,0.00,,,0.00,0.000000,,2013-03-02 09:21:00,
2013-03-02 02:31:00,33.0,29.0,-100.00,ESE,107,4.0,6.0,84,0.00,,,0.00,0.000000,,2013-03-02 09:31:00,
2013-03-02 02:52:00,31.0,28.0,-100.00,ENE,72,3.0,7.0,88,0.00,,,0.00,0.000000,,2013-03-02 09:52:00,
2013-03-02 03:01:00,31.0,28.0,-100.00,ENE,72,3.0,7.0,88,0.00,,,0.00,0.000000,,2013-03-02 10:01:00,
2013-03-02 03:15:00,31.0,28.0,-100.00,ENE,72,3.0,7.0,88,0.00,,,0.00,0.000000,,2013-03-02 10:15:00,
2013-03-02 03:21:00,31.0,28.0,-100.00,ENE,72,3.0,7.0,88,0.00,,,0.00,0.000000,,2013-03-02 10:21:00,
2013-03-02 03:31:00,31.0,28.0,-100.00,ENE,72,3.0,7.0,88,0.00,,,0.00,0.000000,,2013-03-02 10:31:00,
2013-03-02 03:52:00,31.0,28.0,-100.00,East,85,5.0,7.0,88,0.00,,,0.00,0.000000,,2013-03-02 10:52:00,
2013-03-02 04:01:00,31.0,28.0,-100.00,East,85,5.0,7.0,88,0.00,,,0.00,0.000000,,2013-03-02 11:01:00,
2013-03-02 04:11:00,31.0,28.0,-100.00,East,85,5.0,7.0,88,0.00,,,0.00,0.000000,,2013-03-02 11:11:00,
2013-03-02 04:21:00,31.0,28.0,-100.00,East,85,5.0,7.0,88,0.00,,,0.00,0.000000,,2013-03-02 11:21:00,
2013-03-02 04:31:00,31.0,28.0,-100.00,East,85,5.0,7.0,88,0.00,,,0.00,0.000000,,2013-03-02 11:31:00,
2013-03-02 04:52:00,30.0,27.0,-100.00,NNW,346,2.0,5.0,88,0.00,,,0.00,0.000000,,2013-03-02 11:52:00,
2013-03-02 05:02:00,30.0,27.0,-100.00,NNW,346,2.0,5.0,88,0.00,,,0.00,0.000000,,2013-03-02 12:02:00,
2013-03-02 05:11:00,30.0,27.0,-100.00,NNW,346,2.0,5.0,88,0.00,,,0.00,0.000000,,2013-03-02 12:11:00,
2013-03-02 05:21:00,30.0,27.0,-100.00,NNW,346,2.0,5.0,88,0.00,,,0.00,0.000000,,2013-03-02 12:21:00,
2013-03-02 05:32:00,30.0,27.0,-100.00,NNW,346,2.0,5.0,88,0.00,,,0.00,0.000000,,2013-03-02 12:32:00,
2013-03-02 06:01:00,29.0,27.0,-100.00,East,92,4.0,5.0,91,0.00,,,0.00,0.000000,,2013-03-02 13:01:00,
2013-03-02 06:11:00,29.0,27.0,-100.00,East,92,4.0,5.0,91,0.00,,,0.00,0.000000,,2013-03-02 13:11:00,
2013-03-02 06:21:00,29.0,27.0,-100.00,East,92,4.0,5.0,91,0.00,,,0.00,0.000000,,2013-03-02 13:21:00,
2013-03-02 06:31:00,29.0,27.0,-100.00,East,92,4.0,5.0,91,0.00,,,0.00,0.000000,,2013-03-02 13:31:00,
2013-03-02 07:01:00,29.0,27.0,-100.00,East,81,3.0,8.0,91,0.00,,,0.00,0.000000,,2013-03-02 14:01:00,
2013-03-02 07:11:00,29.0,27.0,-100.00,East,81,3.0,8.0,91,0.00,,,0.00,0.000000,,2013-03-02 14:11:00,
2013-03-02 07:21:00,29.0,27.0,-100.00,East,81,3.0,8.0,91,0.00,,,0.00,0.000000,,2013-03-02 14:21:00,
2013-03-02 07:31:00,29.0,27.0,-100.00,East,81,3.0,8.0,91,0.00,,,0.00,0.000000,,2013-03-02 14:31:00,
2013-03-02 07:52:00,28.0,25.0,-100.00,East,91,2.0,6.0,90,0.00,,,0.00,2.000000,,2013-03-02 14:52:00,
2013-03-02 08:02:00,28.0,25.0,-100.00,East,91,2.0,6.0,90,0.00,,,0.00,2.000000,,2013-03-02 15:02:00,
2013-03-02 08:11:00,28.0,25.0,-100.00,East,91,2.0,6.0,90,0.00,,,0.00,2.000000,,2013-03-02 15:11:00,
2013-03-02 08:21:00,28.0,25.0,-100.00,East,91,2.0,6.0,90,0.00,,,0.00,2.000000,,2013-03-02 15:21:00,
2013-03-02 08:31:00,28.0,25.0,-100.00,East,91,2.0,6.0,90,0.00,,,0.00,2.000000,,2013-03-02 15:31:00,
2013-03-02 09:01:00,32.0,27.0,-100.00,East,97,3.0,5.0,82,0.00,,,0.00,96.000000,,2013-03-02 16:01:00,
2013-03-02 09:11:00,32.0,27.0,-100.00,East,97,3.0,5.0,82,0.00,,,0.00,96.000000,,2013-03-02 16:11:00,
2013-03-02 09:21:00,32.0,27.0,-100.00,East,97,3.0,5.0,82,0.00,,,0.00,96.000000,,2013-03-02 16:21:00,
2013-03-02 09:31:00,32.0,27.0,-100.00,East,97,3.0,5.0,82,0.00,,,0.00,96.000000,,2013-03-02 16:31:00,
2013-03-02 09:52:00,34.0,28.0,-100.00,East,95,4.0,7.0,77,0.00,,,0.00,242.000000,,2013-03-02 16:52:00,
2013-03-02 10:01:00,34.0,28.0,-100.00,East,95,4.0,7.0,77,0.00,,,0.00,242.000000,,2013-03-02 17:01:00,
2013-03-02 10:11:00,34.0,28.0,-100.00,East,95,4.0,7.0,77,0.00,,,0.00,242.000000,,2013-03-02 17:11:00,
2013-03-02 10:21:00,34.0,28.0,-100.00,East,95,4.0,7.0,77,0.00,,,0.00,242.000000,,2013-03-02 17:21:00,
2013-03-02 10:31:00,34.0,28.0,-100.00,East,95,4.0,7.0,77,0.00,,,0.00,242.000000,,2013-03-02 17:31:00,
2013-03-02 10:52:00,42.0,30.0,-100.00,SW,235,1.0,6.0,61,0.00,,,0.00,389.000000,,2013-03-02 17:52:00,
2013-03-02 11:01:00,42.0,30.0,-100.00,SW,235,1.0,6.0,61,0.00,,,0.00,389.000000,,2013-03-02 18:01:00,
2013-03-02 11:11:00,42.0,30.0,-100.00,SW,235,1.0,6.0,61,0.00,,,0.00,389.000000,,2013-03-02 18:11:00,
2013-03-02 11:22:00,42.0,30.0,-100.00,SW,235,1.0,6.0,61,0.00,,,0.00,389.000000,,2013-03-02 18:22:00,
2013-03-02 11:31:00,42.0,30.0,-100.00,SW,235,1.0,6.0,61,0.00,,,0.00,389.000000,,2013-03-02 18:31:00,
2013-03-02 11:52:00,47.0,30.0,-100.00,SE,140,3.0,6.0,52,0.00,,,0.00,517.000000,,2013-03-02 18:52:00,
2013-03-02 12:01:00,47.0,30.0,-100.00,SE,140,3.0,6.0,52,0.00,,,0.00,517.000000,,2013-03-02 19:01:00,
2013-03-02 12:31:00,47.0,30.0,-100.00,SE,140,3.0,6.0,52,0.00,,,0.00,517.000000,,2013-03-02 19:31:00,
2013-03-02 13:01:00,48.0,30.0,-100.00,East,100,4.0,8.0,49,0.00,,,0.00,416.000000,,2013-03-02 20:01:00,
2013-03-02 13:11:00,48.0,30.0,-100.00,East,100,4.0,8.0,49,0.00,,,0.00,416.000000,,2013-03-02 20:11:00,
2013-03-02 13:21:00,48.0,30.0,-100.00,East,100,4.0,8.0,49,0.00,,,0.00,416.000000,,2013-03-02 20:21:00,
2013-03-02 13:31:00,48.0,30.0,-100.00,East,100,4.0,8.0,49,0.00,,,0.00,416.000000,,2013-03-02 20:31:00,
2013-03-02 14:02:00,51.0,31.0,-100.00,SE,135,4.0,11.0,47,0.00,,,0.00,326.000000,,2013-03-02 21:02:00,
2013-03-02 14:11:00,51.0,31.0,-100.00,SE,135,4.0,11.0,47,0.00,,,0.00,326.000000,,2013-03-02 21:11:00,
2013-03-02 14:21:00,51.0,31.0,-100.00,SE,135,4.0,11.0,47,0.00,,,0.00,326.000000,,2013-03-02 21:21:00,
2013-03-02 14:31:00,51.0,31.0,-100.00,SE,135,4.0,11.0,47,0.00,,,0.00,326.000000,,2013-03-02 21:31:00,
2013-03-02 14:52:00,51.0,32.0,-100.00,SE,127,9.0,16.0,48,0.00,,,0.00,271.000000,,2013-03-02 21:52:00,
2013-03-02 15:01:00,51.0,32.0,-100.00,SE,127,9.0,16.0,48,0.00,,,0.00,271.000000,,2013-03-02 22:01:00,
2013-03-02 15:11:00,51.0,32.0,-100.00,SE,127,9.0,16.0,48,0.00,,,0.00,271.000000,,2013-03-02 22:11:00,
2013-03-02 15:21:00,51.0,32.0,-100.00,SE,127,9.0,16.0,48,0.00,,,0.00,271.000000,,2013-03-02 22:21:00,
2013-03-02 15:31:00,51.0,32.0,-100.00,SE,127,9.0,16.0,48,0.00,,,0.00,271.000000,,2013-03-02 22:31:00,
2013-03-02 15:52:00,51.0,32.0,-100.00,SE,134,8.0,17.0,48,0.00,,,0.00,269.000000,,2013-03-02 22:52:00,
2013-03-02 16:01:00,51.0,32.0,-100.00,SE,134,8.0,17.0,48,0.00,,,0.00,269.000000,,2013-03-02 23:01:00,
2013-03-02 16:11:00,51.0,32.0,-100.00,SE,134,8.0,17.0,48,0.00,,,0.00,269.000000,,2013-03-02 23:11:00,
2013-03-02 16:21:00,51.0,32.0,-100.00,SE,134,8.0,17.0,48,0.00,,,0.00,269.000000,,2013-03-02 23:21:00,
2013-03-02 16:31:00,51.0,32.0,-100.00,SE,134,8.0,17.0,48,0.00,,,0.00,269.000000,,2013-03-02 23:31:00,
2013-03-02 16:52:00,51.0,31.0,-100.00,South,181,3.0,13.0,47,0.00,,,0.00,124.000000,,2013-03-02 23:52:00,
2013-03-02 17:02:00,51.0,31.0,-100.00,South,181,3.0,13.0,47,0.00,,,0.00,124.000000,,2013-03-03 00:02:00,
2013-03-02 17:11:00,51.0,31.0,-100.00,South,181,3.0,13.0,47,0.00,,,0.00,124.000000,,2013-03-03 00:11:00,
2013-03-02 17:22:00,51.0,31.0,-100.00,South,181,3.0,13.0,47,0.00,,,0.00,124.000000,,2013-03-03 00:22:00,
2013-03-02 17:31:00,51.0,31.0,-100.00,South,181,3.0,13.0,47,0.00,,,0.00,124.000000,,2013-03-03 00:31:00,
2013-03-02 18:01:00,50.0,31.0,-100.00,SW,223,6.0,12.0,48,0.00,,,0.00,73.000000,,2013-03-03 01:01:00,
2013-03-02 18:11:00,50.0,31.0,-100.00,SW,223,6.0,12.0,48,0.00,,,0.00,73.000000,,2013-03-03 01:11:00,
2013-03-02 18:21:00,50.0,31.0,-100.00,SW,223,6.0,12.0,48,0.00,,,0.00,73.000000,,2013-03-03 01:21:00,
2013-03-02 18:31:00,50.0,31.0,-100.00,SW,223,6.0,12.0,48,0.00,,,0.00,73.000000,,2013-03-03 01:31:00,
2013-03-02 19:01:00,47.0,30.0,-100.00,WSW,252,6.0,19.0,51,0.00,,,0.00,19.000000,,2013-03-03 02:01:00,
2013-03-02 19:11:00,47.0,30.0,-100.00,WSW,252,6.0,19.0,51,0.00,,,0.00,19.000000,,2013-03-03 02:11:00,
2013-03-02 19:21:00,47.0,30.0,-100.00,WSW,252,6.0,19.0,51,0.00,,,0.00,19.000000,,2013-03-03 02:21:00,
2013-03-02 19:31:00,47.0,30.0,-100.00,WSW,252,6.0,19.0,51,0.00,,,0.00,19.000000,,2013-03-03 02:31:00,
2013-03-02 19:52:00,46.0,31.0,-100.00,South,191,6.0,14.0,55,0.00,,,0.00,0.000000,,2013-03-03 02:52:00,
2013-03-02 20:01:00,46.0,31.0,-100.00,South,191,6.0,14.0,55,0.00,,,0.00,0.000000,,2013-03-03 03:01:00,
2013-03-02 20:11:00,46.0,31.0,-100.00,South,191,6.0,14.0,55,0.00,,,0.00,0.000000,,2013-03-03 03:11:00,
2013-03-02 20:21:00,46.0,31.0,-100.00,South,191,6.0,14.0,55,0.00,,,0.00,0.000000,,2013-03-03 03:21:00,
2013-03-02 20:31:00,46.0,31.0,-100.00,South,191,6.0,14.0,55,0.00,,,0.00,0.000000,,2013-03-03 03:31:00,
2013-03-02 20:52:00,44.0,32.0,-100.00,West,279,5.0,17.0,63,0.00,,,0.00,0.000000,,2013-03-03 03:52:00,
2013-03-02 21:01:00,44.0,32.0,-100.00,West,279,5.0,17.0,63,0.00,,,0.00,0.000000,,2013-03-03 04:01:00,
2013-03-02 21:11:00,44.0,32.0,-100.00,West,279,5.0,17.0,63,0.00,,,0.00,0.000000,,2013-03-03 04:11:00,
2013-03-02 21:21:00,44.0,32.0,-100.00,West,279,5.0,17.0,63,0.00,,,0.00,0.000000,,2013-03-03 04:21:00,
2013-03-02 21:31:00,44.0,32.0,-100.00,West,279,5.0,17.0,63,0.00,,,0.00,0.000000,,2013-03-03 04:31:00,
2013-03-02 22:01:00,43.0,33.0,-100.00,SE,139,5.0,9.0,68,0.00,,,0.00,0.000000,,2013-03-03 05:01:00,
2013-03-02 22:11:00,43.0,33.0,-100.00,SE,139,5.0,9.0,68,0.00,,,0.00,0.000000,,2013-03-03 05:11:00,
2013-03-02 22:22:00,43.0,33.0,-100.00,SE,139,5.0,9.0,68,0.00,,,0.00,0.000000,,2013-03-03 05:22:00,
2013-03-02 22:32:00,43.0,33.0,-100.00,SE,139,5.0,9.0,68,0.00,,,0.00,0.000000,,2013-03-03 05:32:00,
2013-03-02 23:01:00,40.0,34.0,-100.00,SE,127,3.0,7.0,80,0.00,,,0.00,0.000000,,2013-03-03 06:01:00,
2013-03-02 23:11:00,40.0,34.0,-100.00,SE,127,3.0,7.0,80,0.00,,,0.00,0.000000,,2013-03-03 06:11:00,
2013-03-02 23:21:00,40.0,34.0,-100.00,SE,127,3.0,7.0,80,0.00,,,0.00,0.000000,,2013-03-03 06:21:00,
2013-03-02 23:31:00,40.0,34.0,-100.00,SE,127,3.0,7.0,80,0.00,,,0.00,0.000000,,2013-03-03 06:31:00,
2013-03-02 23:52:00,41.0,34.0,-100.00,ESE,113,7.0,12.0,75,0.01,,,0.01,0.000000,,2013-03-03 06:52:00,